sensor_id;sensor_type;location;lat;lon;timestamp;P1;durP1;ratioP1;P2;durP2;ratioP2
18879;SDS011;9572;52.378;13.404;2023-02-23T00:00:12;37.40;;;12.30;;
18879;SDS011;9572;52.378;13.404;2023-02-23T00:02:45;35.23;;;11.67;;
18879;SDS011;9572;52.378;13.404;2023-02-23T00:05:13;36.50;;;13.17;;
18879;SDS011;9572;52.378;13.404;2023-02-23T00:07:41;43.60;;;13.10;;
18879;SDS011;9572;52.378;13.404;2023-02-23T00:10:10;39.03;;;12.77;;
18879;SDS011;9572;52.378;13.404;2023-02-23T00:12:40;30.97;;;11.90;;
18879;SDS011;9572;52.378;13.404;2023-02-23T00:15:07;34.30;;;12.43;;
18879;SDS011;9572;52.378;13.404;2023-02-23T00:17:35;34.87;;;12.77;;
18879;SDS011;9572;52.378;13.404;2023-02-23T00:20:05;34.20;;;12.43;;
18879;SDS011;9572;52.378;13.404;2023-02-23T00:22:35;39.07;;;13.77;;
18879;SDS011;9572;52.378;13.404;2023-02-23T00:25:04;42.60;;;14.23;;
18879;SDS011;9572;52.378;13.404;2023-02-23T00:27:33;35.97;;;13.50;;
18879;SDS011;9572;52.378;13.404;2023-02-23T00:30:04;39.27;;;13.67;;
18879;SDS011;9572;52.378;13.404;2023-02-23T00:32:32;37.33;;;13.33;;
18879;SDS011;9572;52.378;13.404;2023-02-23T00:34:59;37.13;;;14.03;;
18879;SDS011;9572;52.378;13.404;2023-02-23T00:37:26;36.47;;;13.67;;
18879;SDS011;9572;52.378;13.404;2023-02-23T00:39:53;38.77;;;14.47;;
18879;SDS011;9572;52.378;13.404;2023-02-23T00:42:22;51.40;;;15.83;;
18879;SDS011;9572;52.378;13.404;2023-02-23T00:44:49;40.90;;;15.03;;
18879;SDS011;9572;52.378;13.404;2023-02-23T00:47:17;42.53;;;14.10;;
18879;SDS011;9572;52.378;13.404;2023-02-23T00:49:44;43.10;;;15.63;;
18879;SDS011;9572;52.378;13.404;2023-02-23T00:52:11;38.13;;;14.77;;
18879;SDS011;9572;52.378;13.404;2023-02-23T00:54:39;38.60;;;15.57;;
18879;SDS011;9572;52.378;13.404;2023-02-23T00:57:07;46.33;;;17.57;;
18879;SDS011;9572;52.378;13.404;2023-02-23T00:59:34;44.90;;;16.47;;
18879;SDS011;9572;52.378;13.404;2023-02-23T01:02:01;39.10;;;15.57;;
18879;SDS011;9572;52.378;13.404;2023-02-23T01:04:29;49.93;;;15.23;;
18879;SDS011;9572;52.378;13.404;2023-02-23T01:06:56;39.40;;;15.70;;
18879;SDS011;9572;52.378;13.404;2023-02-23T01:09:23;39.10;;;14.87;;
18879;SDS011;9572;52.378;13.404;2023-02-23T01:11:54;37.77;;;14.70;;
18879;SDS011;9572;52.378;13.404;2023-02-23T01:14:21;39.07;;;16.33;;
18879;SDS011;9572;52.378;13.404;2023-02-23T01:16:49;37.53;;;14.50;;
18879;SDS011;9572;52.378;13.404;2023-02-23T01:19:16;44.80;;;16.53;;
18879;SDS011;9572;52.378;13.404;2023-02-23T01:21:44;41.63;;;14.83;;
18879;SDS011;9572;52.378;13.404;2023-02-23T01:24:11;40.70;;;16.23;;
18879;SDS011;9572;52.378;13.404;2023-02-23T01:26:39;37.67;;;14.90;;
18879;SDS011;9572;52.378;13.404;2023-02-23T01:29:08;45.30;;;15.17;;
18879;SDS011;9572;52.378;13.404;2023-02-23T01:31:37;39.53;;;15.10;;
18879;SDS011;9572;52.378;13.404;2023-02-23T01:34:05;34.40;;;14.60;;
18879;SDS011;9572;52.378;13.404;2023-02-23T01:36:33;40.57;;;16.00;;
18879;SDS011;9572;52.378;13.404;2023-02-23T01:39:04;37.00;;;14.70;;
18879;SDS011;9572;52.378;13.404;2023-02-23T01:41:34;40.80;;;15.53;;
18879;SDS011;9572;52.378;13.404;2023-02-23T01:44:02;36.40;;;15.20;;
18879;SDS011;9572;52.378;13.404;2023-02-23T01:46:31;37.33;;;15.37;;
18879;SDS011;9572;52.378;13.404;2023-02-23T01:49:00;41.23;;;15.77;;
18879;SDS011;9572;52.378;13.404;2023-02-23T01:51:29;38.13;;;16.07;;
18879;SDS011;9572;52.378;13.404;2023-02-23T01:53:59;34.83;;;15.07;;
18879;SDS011;9572;52.378;13.404;2023-02-23T01:56:33;38.83;;;16.07;;
18879;SDS011;9572;52.378;13.404;2023-02-23T01:59:07;34.40;;;15.17;;
18879;SDS011;9572;52.378;13.404;2023-02-23T02:01:36;31.07;;;14.30;;
18879;SDS011;9572;52.378;13.404;2023-02-23T02:04:04;42.97;;;16.27;;
18879;SDS011;9572;52.378;13.404;2023-02-23T02:06:32;39.93;;;16.03;;
18879;SDS011;9572;52.378;13.404;2023-02-23T02:09:02;40.30;;;16.47;;
18879;SDS011;9572;52.378;13.404;2023-02-23T02:11:33;44.87;;;16.73;;
18879;SDS011;9572;52.378;13.404;2023-02-23T02:14:08;35.53;;;15.57;;
18879;SDS011;9572;52.378;13.404;2023-02-23T02:16:40;39.87;;;16.40;;
18879;SDS011;9572;52.378;13.404;2023-02-23T02:19:35;39.40;;;15.03;;
18879;SDS011;9572;52.378;13.404;2023-02-23T02:22:26;44.97;;;16.83;;
18879;SDS011;9572;52.378;13.404;2023-02-23T02:25:33;40.07;;;15.83;;
18879;SDS011;9572;52.378;13.404;2023-02-23T02:28:16;47.10;;;16.27;;
18879;SDS011;9572;52.378;13.404;2023-02-23T02:31:03;45.33;;;16.37;;
18879;SDS011;9572;52.378;13.404;2023-02-23T02:34:12;35.00;;;15.37;;
18879;SDS011;9572;52.378;13.404;2023-02-23T02:37:31;46.63;;;16.50;;
18879;SDS011;9572;52.378;13.404;2023-02-23T02:40:23;39.30;;;16.10;;
18879;SDS011;9572;52.378;13.404;2023-02-23T02:42:58;41.43;;;16.73;;
18879;SDS011;9572;52.378;13.404;2023-02-23T02:45:34;42.60;;;15.87;;
18879;SDS011;9572;52.378;13.404;2023-02-23T02:48:09;37.20;;;16.50;;
18879;SDS011;9572;52.378;13.404;2023-02-23T02:50:42;41.90;;;16.60;;
18879;SDS011;9572;52.378;13.404;2023-02-23T02:53:17;43.00;;;15.67;;
18879;SDS011;9572;52.378;13.404;2023-02-23T02:55:50;45.07;;;17.17;;
18879;SDS011;9572;52.378;13.404;2023-02-23T02:58:21;35.63;;;15.77;;
18879;SDS011;9572;52.378;13.404;2023-02-23T03:00:49;45.97;;;16.50;;
18879;SDS011;9572;52.378;13.404;2023-02-23T03:03:36;40.83;;;16.13;;
18879;SDS011;9572;52.378;13.404;2023-02-23T03:06:23;39.50;;;16.33;;
18879;SDS011;9572;52.378;13.404;2023-02-23T03:09:18;35.40;;;15.37;;
18879;SDS011;9572;52.378;13.404;2023-02-23T03:12:15;42.47;;;15.77;;
18879;SDS011;9572;52.378;13.404;2023-02-23T03:15:08;39.03;;;16.77;;
18879;SDS011;9572;52.378;13.404;2023-02-23T03:18:04;47.97;;;16.53;;
18879;SDS011;9572;52.378;13.404;2023-02-23T03:20:57;36.87;;;16.27;;
18879;SDS011;9572;52.378;13.404;2023-02-23T03:23:46;38.67;;;16.10;;
18879;SDS011;9572;52.378;13.404;2023-02-23T03:26:39;37.33;;;15.53;;
18879;SDS011;9572;52.378;13.404;2023-02-23T03:29:29;37.67;;;15.70;;
18879;SDS011;9572;52.378;13.404;2023-02-23T03:32:21;40.03;;;15.33;;
18879;SDS011;9572;52.378;13.404;2023-02-23T03:35:12;38.30;;;15.63;;
18879;SDS011;9572;52.378;13.404;2023-02-23T03:38:03;46.73;;;15.97;;
18879;SDS011;9572;52.378;13.404;2023-02-23T03:40:53;37.47;;;16.37;;
18879;SDS011;9572;52.378;13.404;2023-02-23T03:43:40;43.13;;;16.10;;
18879;SDS011;9572;52.378;13.404;2023-02-23T03:46:31;44.87;;;16.03;;
18879;SDS011;9572;52.378;13.404;2023-02-23T03:49:18;37.27;;;14.93;;
18879;SDS011;9572;52.378;13.404;2023-02-23T03:52:04;35.77;;;15.33;;
18879;SDS011;9572;52.378;13.404;2023-02-23T03:54:55;37.37;;;15.77;;
18879;SDS011;9572;52.378;13.404;2023-02-23T03:57:42;37.60;;;14.83;;
18879;SDS011;9572;52.378;13.404;2023-02-23T04:00:33;37.10;;;14.77;;
18879;SDS011;9572;52.378;13.404;2023-02-23T04:03:21;34.83;;;14.70;;
18879;SDS011;9572;52.378;13.404;2023-02-23T04:06:07;48.70;;;15.80;;
18879;SDS011;9572;52.378;13.404;2023-02-23T04:08:57;35.07;;;14.40;;
18879;SDS011;9572;52.378;13.404;2023-02-23T04:11:45;36.17;;;14.63;;
18879;SDS011;9572;52.378;13.404;2023-02-23T04:14:36;39.70;;;14.50;;
18879;SDS011;9572;52.378;13.404;2023-02-23T04:17:08;44.90;;;15.67;;
18879;SDS011;9572;52.378;13.404;2023-02-23T04:19:36;39.27;;;15.10;;
18879;SDS011;9572;52.378;13.404;2023-02-23T04:22:03;32.83;;;14.03;;
18879;SDS011;9572;52.378;13.404;2023-02-23T04:24:30;35.30;;;14.83;;
18879;SDS011;9572;52.378;13.404;2023-02-23T04:29:26;37.17;;;15.77;;
18879;SDS011;9572;52.378;13.404;2023-02-23T04:31:53;37.37;;;14.30;;
18879;SDS011;9572;52.378;13.404;2023-02-23T04:34:21;38.00;;;14.60;;
18879;SDS011;9572;52.378;13.404;2023-02-23T04:36:48;41.37;;;15.73;;
18879;SDS011;9572;52.378;13.404;2023-02-23T04:39:15;38.00;;;14.77;;
18879;SDS011;9572;52.378;13.404;2023-02-23T04:41:42;41.37;;;15.30;;
18879;SDS011;9572;52.378;13.404;2023-02-23T04:44:09;32.27;;;14.83;;
18879;SDS011;9572;52.378;13.404;2023-02-23T04:46:36;40.63;;;14.73;;
18879;SDS011;9572;52.378;13.404;2023-02-23T04:49:03;40.97;;;15.87;;
18879;SDS011;9572;52.378;13.404;2023-02-23T04:51:31;41.73;;;15.27;;
18879;SDS011;9572;52.378;13.404;2023-02-23T04:53:59;37.50;;;15.70;;
18879;SDS011;9572;52.378;13.404;2023-02-23T04:56:26;33.47;;;14.50;;
18879;SDS011;9572;52.378;13.404;2023-02-23T04:58:54;36.83;;;16.20;;
18879;SDS011;9572;52.378;13.404;2023-02-23T05:01:20;30.83;;;15.30;;
18879;SDS011;9572;52.378;13.404;2023-02-23T05:03:48;32.70;;;15.10;;
18879;SDS011;9572;52.378;13.404;2023-02-23T05:06:15;43.33;;;15.43;;
18879;SDS011;9572;52.378;13.404;2023-02-23T05:08:44;42.93;;;15.63;;
18879;SDS011;9572;52.378;13.404;2023-02-23T05:11:11;42.27;;;14.97;;
18879;SDS011;9572;52.378;13.404;2023-02-23T05:13:38;30.63;;;13.47;;
18879;SDS011;9572;52.378;13.404;2023-02-23T05:16:05;36.10;;;14.27;;
18879;SDS011;9572;52.378;13.404;2023-02-23T05:18:32;32.67;;;14.60;;
18879;SDS011;9572;52.378;13.404;2023-02-23T05:21:03;37.27;;;14.83;;
18879;SDS011;9572;52.378;13.404;2023-02-23T05:23:31;39.60;;;15.57;;
18879;SDS011;9572;52.378;13.404;2023-02-23T05:26:01;40.27;;;15.47;;
18879;SDS011;9572;52.378;13.404;2023-02-23T05:28:30;35.90;;;15.03;;
18879;SDS011;9572;52.378;13.404;2023-02-23T05:30:58;33.30;;;14.00;;
18879;SDS011;9572;52.378;13.404;2023-02-23T05:33:27;30.70;;;13.50;;
18879;SDS011;9572;52.378;13.404;2023-02-23T05:35:54;35.93;;;13.83;;
18879;SDS011;9572;52.378;13.404;2023-02-23T05:38:21;35.10;;;13.70;;
18879;SDS011;9572;52.378;13.404;2023-02-23T05:40:48;36.80;;;15.03;;
18879;SDS011;9572;52.378;13.404;2023-02-23T05:43:16;37.97;;;15.37;;
18879;SDS011;9572;52.378;13.404;2023-02-23T05:45:43;39.60;;;15.10;;
18879;SDS011;9572;52.378;13.404;2023-02-23T05:48:10;35.20;;;15.17;;
18879;SDS011;9572;52.378;13.404;2023-02-23T05:50:38;33.70;;;15.30;;
18879;SDS011;9572;52.378;13.404;2023-02-23T05:53:05;37.80;;;15.30;;
18879;SDS011;9572;52.378;13.404;2023-02-23T05:55:31;37.20;;;15.33;;
18879;SDS011;9572;52.378;13.404;2023-02-23T05:57:58;35.73;;;15.20;;
18879;SDS011;9572;52.378;13.404;2023-02-23T06:00:26;39.20;;;16.57;;
18879;SDS011;9572;52.378;13.404;2023-02-23T06:02:53;36.03;;;14.43;;
18879;SDS011;9572;52.378;13.404;2023-02-23T06:05:20;37.30;;;14.93;;
18879;SDS011;9572;52.378;13.404;2023-02-23T06:07:47;34.13;;;14.70;;
18879;SDS011;9572;52.378;13.404;2023-02-23T06:10:14;40.60;;;15.40;;
18879;SDS011;9572;52.378;13.404;2023-02-23T06:12:41;37.47;;;14.03;;
18879;SDS011;9572;52.378;13.404;2023-02-23T06:15:08;33.70;;;13.90;;
18879;SDS011;9572;52.378;13.404;2023-02-23T06:17:37;33.23;;;15.37;;
18879;SDS011;9572;52.378;13.404;2023-02-23T06:20:04;36.77;;;14.20;;
18879;SDS011;9572;52.378;13.404;2023-02-23T06:22:31;26.20;;;13.63;;
18879;SDS011;9572;52.378;13.404;2023-02-23T06:24:58;41.50;;;15.10;;
18879;SDS011;9572;52.378;13.404;2023-02-23T06:27:28;42.27;;;15.40;;
18879;SDS011;9572;52.378;13.404;2023-02-23T06:29:55;41.27;;;14.90;;
18879;SDS011;9572;52.378;13.404;2023-02-23T06:32:22;35.23;;;14.90;;
18879;SDS011;9572;52.378;13.404;2023-02-23T06:34:52;44.73;;;15.43;;
18879;SDS011;9572;52.378;13.404;2023-02-23T06:37:19;37.73;;;15.37;;
18879;SDS011;9572;52.378;13.404;2023-02-23T06:39:46;38.10;;;14.77;;
18879;SDS011;9572;52.378;13.404;2023-02-23T06:42:12;39.13;;;14.73;;
18879;SDS011;9572;52.378;13.404;2023-02-23T06:44:40;40.50;;;16.20;;
18879;SDS011;9572;52.378;13.404;2023-02-23T06:47:07;31.10;;;14.07;;
18879;SDS011;9572;52.378;13.404;2023-02-23T06:49:35;44.73;;;15.50;;
18879;SDS011;9572;52.378;13.404;2023-02-23T06:52:05;37.80;;;15.03;;
18879;SDS011;9572;52.378;13.404;2023-02-23T06:54:33;38.10;;;15.63;;
18879;SDS011;9572;52.378;13.404;2023-02-23T06:57:00;35.23;;;15.80;;
18879;SDS011;9572;52.378;13.404;2023-02-23T06:59:26;37.70;;;16.70;;
18879;SDS011;9572;52.378;13.404;2023-02-23T07:01:54;40.83;;;15.63;;
18879;SDS011;9572;52.378;13.404;2023-02-23T07:04:21;39.40;;;16.17;;
18879;SDS011;9572;52.378;13.404;2023-02-23T07:06:49;47.33;;;16.00;;
18879;SDS011;9572;52.378;13.404;2023-02-23T07:09:18;42.47;;;18.95;;
18879;SDS011;9572;52.378;13.404;2023-02-23T07:11:45;35.13;;;16.00;;
18879;SDS011;9572;52.378;13.404;2023-02-23T07:14:12;42.50;;;16.50;;
18879;SDS011;9572;52.378;13.404;2023-02-23T07:16:39;36.07;;;16.00;;
18879;SDS011;9572;52.378;13.404;2023-02-23T07:19:06;42.47;;;16.27;;
18879;SDS011;9572;52.378;13.404;2023-02-23T07:21:32;39.67;;;15.63;;
18879;SDS011;9572;52.378;13.404;2023-02-23T07:23:59;36.73;;;15.03;;
18879;SDS011;9572;52.378;13.404;2023-02-23T07:26:30;45.67;;;15.83;;
18879;SDS011;9572;52.378;13.404;2023-02-23T07:28:57;39.80;;;14.30;;
18879;SDS011;9572;52.378;13.404;2023-02-23T07:31:24;42.63;;;16.77;;
18879;SDS011;9572;52.378;13.404;2023-02-23T07:33:51;33.67;;;15.00;;
18879;SDS011;9572;52.378;13.404;2023-02-23T07:36:18;35.10;;;15.63;;
18879;SDS011;9572;52.378;13.404;2023-02-23T07:38:46;35.50;;;16.30;;
18879;SDS011;9572;52.378;13.404;2023-02-23T07:41:13;29.97;;;13.87;;
18879;SDS011;9572;52.378;13.404;2023-02-23T07:43:41;38.97;;;16.40;;
18879;SDS011;9572;52.378;13.404;2023-02-23T07:46:08;37.30;;;15.50;;
18879;SDS011;9572;52.378;13.404;2023-02-23T07:48:34;36.93;;;14.17;;
18879;SDS011;9572;52.378;13.404;2023-02-23T07:51:06;30.13;;;13.37;;
18879;SDS011;9572;52.378;13.404;2023-02-23T07:53:34;38.97;;;14.93;;
18879;SDS011;9572;52.378;13.404;2023-02-23T07:56:02;39.73;;;15.43;;
18879;SDS011;9572;52.378;13.404;2023-02-23T07:58:29;31.67;;;14.53;;
18879;SDS011;9572;52.378;13.404;2023-02-23T08:00:57;38.97;;;15.33;;
18879;SDS011;9572;52.378;13.404;2023-02-23T08:03:24;38.80;;;15.63;;
18879;SDS011;9572;52.378;13.404;2023-02-23T08:05:51;34.63;;;14.90;;
18879;SDS011;9572;52.378;13.404;2023-02-23T08:08:18;34.17;;;13.87;;
18879;SDS011;9572;52.378;13.404;2023-02-23T08:10:45;35.37;;;14.77;;
18879;SDS011;9572;52.378;13.404;2023-02-23T08:13:13;37.87;;;15.30;;
18879;SDS011;9572;52.378;13.404;2023-02-23T08:15:40;39.43;;;15.73;;
18879;SDS011;9572;52.378;13.404;2023-02-23T08:18:09;33.50;;;14.10;;
18879;SDS011;9572;52.378;13.404;2023-02-23T08:20:36;45.83;;;14.93;;
18879;SDS011;9572;52.378;13.404;2023-02-23T08:23:02;39.30;;;15.00;;
18879;SDS011;9572;52.378;13.404;2023-02-23T08:25:30;32.50;;;14.50;;
18879;SDS011;9572;52.378;13.404;2023-02-23T08:27:57;40.90;;;15.70;;
18879;SDS011;9572;52.378;13.404;2023-02-23T08:30:28;30.80;;;15.03;;
18879;SDS011;9572;52.378;13.404;2023-02-23T08:32:56;39.53;;;15.47;;
18879;SDS011;9572;52.378;13.404;2023-02-23T08:35:24;35.30;;;15.13;;
18879;SDS011;9572;52.378;13.404;2023-02-23T08:37:51;32.40;;;14.87;;
18879;SDS011;9572;52.378;13.404;2023-02-23T08:40:18;35.93;;;14.53;;
18879;SDS011;9572;52.378;13.404;2023-02-23T08:42:45;34.30;;;14.23;;
18879;SDS011;9572;52.378;13.404;2023-02-23T08:45:16;29.87;;;14.13;;
18879;SDS011;9572;52.378;13.404;2023-02-23T08:47:43;39.53;;;14.40;;
18879;SDS011;9572;52.378;13.404;2023-02-23T08:50:10;37.87;;;16.10;;
18879;SDS011;9572;52.378;13.404;2023-02-23T08:52:39;33.03;;;15.00;;
18879;SDS011;9572;52.378;13.404;2023-02-23T08:55:06;33.70;;;15.53;;
18879;SDS011;9572;52.378;13.404;2023-02-23T08:57:35;37.33;;;15.50;;
18879;SDS011;9572;52.378;13.404;2023-02-23T09:00:03;36.67;;;15.33;;
18879;SDS011;9572;52.378;13.404;2023-02-23T09:02:35;35.87;;;14.40;;
18879;SDS011;9572;52.378;13.404;2023-02-23T09:05:03;33.07;;;15.33;;
18879;SDS011;9572;52.378;13.404;2023-02-23T09:07:31;38.83;;;16.13;;
18879;SDS011;9572;52.378;13.404;2023-02-23T09:09:59;27.30;;;14.50;;
18879;SDS011;9572;52.378;13.404;2023-02-23T09:12:26;36.37;;;15.43;;
18879;SDS011;9572;52.378;13.404;2023-02-23T09:14:52;40.23;;;15.90;;
18879;SDS011;9572;52.378;13.404;2023-02-23T09:17:20;33.27;;;14.80;;
18879;SDS011;9572;52.378;13.404;2023-02-23T09:19:47;28.27;;;14.10;;
18879;SDS011;9572;52.378;13.404;2023-02-23T09:22:14;39.23;;;16.17;;
18879;SDS011;9572;52.378;13.404;2023-02-23T09:24:42;32.73;;;14.73;;
18879;SDS011;9572;52.378;13.404;2023-02-23T09:27:10;38.63;;;16.10;;
18879;SDS011;9572;52.378;13.404;2023-02-23T09:29:38;38.07;;;15.33;;
18879;SDS011;9572;52.378;13.404;2023-02-23T09:32:07;37.07;;;15.90;;
18879;SDS011;9572;52.378;13.404;2023-02-23T09:34:34;42.33;;;15.33;;
18879;SDS011;9572;52.378;13.404;2023-02-23T09:37:01;31.60;;;13.83;;
18879;SDS011;9572;52.378;13.404;2023-02-23T09:39:28;37.33;;;16.27;;
18879;SDS011;9572;52.378;13.404;2023-02-23T09:45:11;33.17;;;14.60;;
18879;SDS011;9572;52.378;13.404;2023-02-23T09:47:55;31.30;;;14.80;;
18879;SDS011;9572;52.378;13.404;2023-02-23T09:50:34;34.97;;;14.70;;
18879;SDS011;9572;52.378;13.404;2023-02-23T09:53:04;27.43;;;13.90;;
18879;SDS011;9572;52.378;13.404;2023-02-23T09:55:36;33.80;;;14.70;;
18879;SDS011;9572;52.378;13.404;2023-02-23T09:58:21;40.93;;;16.77;;
18879;SDS011;9572;52.378;13.404;2023-02-23T10:00:53;31.27;;;14.33;;
18879;SDS011;9572;52.378;13.404;2023-02-23T10:03:35;32.13;;;14.70;;
18879;SDS011;9572;52.378;13.404;2023-02-23T10:06:13;37.83;;;15.90;;
18879;SDS011;9572;52.378;13.404;2023-02-23T10:08:44;33.77;;;15.23;;
18879;SDS011;9572;52.378;13.404;2023-02-23T10:11:22;36.67;;;16.10;;
18879;SDS011;9572;52.378;13.404;2023-02-23T10:14:01;31.00;;;14.57;;
18879;SDS011;9572;52.378;13.404;2023-02-23T10:16:41;29.10;;;14.47;;
18879;SDS011;9572;52.378;13.404;2023-02-23T10:19:16;33.97;;;17.07;;
18879;SDS011;9572;52.378;13.404;2023-02-23T10:21:53;37.73;;;16.20;;
18879;SDS011;9572;52.378;13.404;2023-02-23T10:24:23;31.63;;;15.17;;
18879;SDS011;9572;52.378;13.404;2023-02-23T10:26:53;29.90;;;14.77;;
18879;SDS011;9572;52.378;13.404;2023-02-23T10:29:27;72.70;;;36.53;;
18879;SDS011;9572;52.378;13.404;2023-02-23T10:31:58;60.93;;;31.27;;
18879;SDS011;9572;52.378;13.404;2023-02-23T10:34:27;32.13;;;16.33;;
18879;SDS011;9572;52.378;13.404;2023-02-23T10:37:00;33.77;;;16.40;;
18879;SDS011;9572;52.378;13.404;2023-02-23T10:39:29;33.47;;;15.63;;
18879;SDS011;9572;52.378;13.404;2023-02-23T10:41:57;31.63;;;15.10;;
18879;SDS011;9572;52.378;13.404;2023-02-23T10:44:28;34.90;;;16.53;;
18879;SDS011;9572;52.378;13.404;2023-02-23T10:46:56;32.00;;;15.97;;
18879;SDS011;9572;52.378;13.404;2023-02-23T10:49:26;35.53;;;16.97;;
18879;SDS011;9572;52.378;13.404;2023-02-23T10:52:09;36.20;;;16.30;;
18879;SDS011;9572;52.378;13.404;2023-02-23T10:54:39;38.30;;;16.63;;
18879;SDS011;9572;52.378;13.404;2023-02-23T10:57:12;35.57;;;16.87;;
18879;SDS011;9572;52.378;13.404;2023-02-23T11:00:03;31.70;;;16.33;;
18879;SDS011;9572;52.378;13.404;2023-02-23T11:02:34;29.30;;;15.80;;
18879;SDS011;9572;52.378;13.404;2023-02-23T11:05:04;33.63;;;16.67;;
18879;SDS011;9572;52.378;13.404;2023-02-23T11:07:32;36.93;;;17.63;;
18879;SDS011;9572;52.378;13.404;2023-02-23T11:12:50;34.43;;;16.47;;
18879;SDS011;9572;52.378;13.404;2023-02-23T11:15:25;29.80;;;15.87;;
18879;SDS011;9572;52.378;13.404;2023-02-23T11:17:54;29.13;;;15.40;;
18879;SDS011;9572;52.378;13.404;2023-02-23T11:20:25;29.13;;;16.50;;
18879;SDS011;9572;52.378;13.404;2023-02-23T11:22:57;27.07;;;16.07;;
18879;SDS011;9572;52.378;13.404;2023-02-23T11:25:25;40.97;;;17.07;;
18879;SDS011;9572;52.378;13.404;2023-02-23T11:27:54;31.70;;;16.97;;
18879;SDS011;9572;52.378;13.404;2023-02-23T11:30:23;34.20;;;17.57;;
18879;SDS011;9572;52.378;13.404;2023-02-23T11:32:55;32.23;;;17.03;;
18879;SDS011;9572;52.378;13.404;2023-02-23T11:35:28;35.43;;;16.40;;
18879;SDS011;9572;52.378;13.404;2023-02-23T11:37:56;37.23;;;17.80;;
18879;SDS011;9572;52.378;13.404;2023-02-23T11:40:24;34.83;;;16.70;;
18879;SDS011;9572;52.378;13.404;2023-02-23T11:42:53;32.53;;;17.67;;
18879;SDS011;9572;52.378;13.404;2023-02-23T11:45:23;35.07;;;16.10;;
18879;SDS011;9572;52.378;13.404;2023-02-23T11:47:53;32.33;;;17.05;;
18879;SDS011;9572;52.378;13.404;2023-02-23T11:50:24;31.47;;;17.33;;
18879;SDS011;9572;52.378;13.404;2023-02-23T11:52:58;32.77;;;17.70;;
18879;SDS011;9572;52.378;13.404;2023-02-23T11:55:29;35.65;;;17.33;;
18879;SDS011;9572;52.378;13.404;2023-02-23T11:58:07;38.05;;;18.67;;
18879;SDS011;9572;52.378;13.404;2023-02-23T12:00:38;28.70;;;16.90;;
18879;SDS011;9572;52.378;13.404;2023-02-23T12:03:05;36.10;;;18.40;;
18879;SDS011;9572;52.378;13.404;2023-02-23T12:05:45;34.10;;;17.03;;
18879;SDS011;9572;52.378;13.404;2023-02-23T12:08:17;27.47;;;16.63;;
18879;SDS011;9572;52.378;13.404;2023-02-23T12:10:52;32.20;;;16.60;;
18879;SDS011;9572;52.378;13.404;2023-02-23T12:13:23;30.53;;;16.80;;
18879;SDS011;9572;52.378;13.404;2023-02-23T12:15:57;33.27;;;18.70;;
18879;SDS011;9572;52.378;13.404;2023-02-23T12:18:38;31.65;;;17.08;;
18879;SDS011;9572;52.378;13.404;2023-02-23T12:21:13;33.03;;;17.37;;
18879;SDS011;9572;52.378;13.404;2023-02-23T12:23:45;33.43;;;16.30;;
18879;SDS011;9572;52.378;13.404;2023-02-23T12:26:14;32.13;;;16.67;;
18879;SDS011;9572;52.378;13.404;2023-02-23T12:28:47;30.30;;;17.33;;
18879;SDS011;9572;52.378;13.404;2023-02-23T12:31:26;31.38;;;16.83;;
18879;SDS011;9572;52.378;13.404;2023-02-23T12:34:00;36.13;;;18.30;;
18879;SDS011;9572;52.378;13.404;2023-02-23T12:36:31;33.03;;;17.57;;
18879;SDS011;9572;52.378;13.404;2023-02-23T12:39:04;35.67;;;17.60;;
18879;SDS011;9572;52.378;13.404;2023-02-23T12:41:42;35.90;;;17.90;;
18879;SDS011;9572;52.378;13.404;2023-02-23T12:44:15;34.93;;;17.67;;
18879;SDS011;9572;52.378;13.404;2023-02-23T12:46:53;31.53;;;17.67;;
18879;SDS011;9572;52.378;13.404;2023-02-23T12:49:24;36.40;;;18.90;;
18879;SDS011;9572;52.378;13.404;2023-02-23T12:51:57;33.77;;;17.70;;
18879;SDS011;9572;52.378;13.404;2023-02-23T12:54:32;30.57;;;18.07;;
18879;SDS011;9572;52.378;13.404;2023-02-23T12:57:02;34.23;;;17.20;;
18879;SDS011;9572;52.378;13.404;2023-02-23T13:02:27;34.87;;;17.23;;
18879;SDS011;9572;52.378;13.404;2023-02-23T13:05:08;30.73;;;17.43;;
18879;SDS011;9572;52.378;13.404;2023-02-23T13:07:41;37.05;;;18.40;;
18879;SDS011;9572;52.378;13.404;2023-02-23T13:10:21;34.13;;;19.00;;
18879;SDS011;9572;52.378;13.404;2023-02-23T13:12:55;36.77;;;18.90;;
18879;SDS011;9572;52.378;13.404;2023-02-23T13:15:30;34.63;;;18.37;;
18879;SDS011;9572;52.378;13.404;2023-02-23T13:18:13;32.60;;;18.20;;
18879;SDS011;9572;52.378;13.404;2023-02-23T13:20:49;33.60;;;18.53;;
18879;SDS011;9572;52.378;13.404;2023-02-23T13:23:20;36.20;;;18.90;;
18879;SDS011;9572;52.378;13.404;2023-02-23T13:25:56;37.67;;;19.10;;
18879;SDS011;9572;52.378;13.404;2023-02-23T13:28:38;34.87;;;18.83;;
18879;SDS011;9572;52.378;13.404;2023-02-23T13:31:18;30.73;;;18.48;;
18879;SDS011;9572;52.378;13.404;2023-02-23T13:33:50;32.87;;;16.87;;
18879;SDS011;9572;52.378;13.404;2023-02-23T13:36:21;34.50;;;18.25;;
18879;SDS011;9572;52.378;13.404;2023-02-23T13:39:03;34.13;;;18.73;;
18879;SDS011;9572;52.378;13.404;2023-02-23T13:41:59;35.45;;;17.95;;
18879;SDS011;9572;52.378;13.404;2023-02-23T13:44:38;33.20;;;18.57;;
18879;SDS011;9572;52.378;13.404;2023-02-23T13:47:14;34.92;;;19.05;;
18879;SDS011;9572;52.378;13.404;2023-02-23T13:49:50;31.17;;;18.17;;
18879;SDS011;9572;52.378;13.404;2023-02-23T13:52:27;33.60;;;18.00;;
18879;SDS011;9572;52.378;13.404;2023-02-23T13:55:09;34.75;;;17.90;;
18879;SDS011;9572;52.378;13.404;2023-02-23T13:58:03;37.42;;;18.10;;
18879;SDS011;9572;52.378;13.404;2023-02-23T14:00:31;40.40;;;18.10;;
18879;SDS011;9572;52.378;13.404;2023-02-23T14:03:01;36.60;;;18.08;;
18879;SDS011;9572;52.378;13.404;2023-02-23T14:05:40;31.65;;;17.25;;
18879;SDS011;9572;52.378;13.404;2023-02-23T14:08:17;36.70;;;18.43;;
18879;SDS011;9572;52.378;13.404;2023-02-23T14:10:48;33.22;;;18.05;;
18879;SDS011;9572;52.378;13.404;2023-02-23T14:13:25;32.83;;;18.43;;
18879;SDS011;9572;52.378;13.404;2023-02-23T14:21:40;38.23;;;21.07;;
18879;SDS011;9572;52.378;13.404;2023-02-23T14:24:15;36.47;;;20.23;;
18879;SDS011;9572;52.378;13.404;2023-02-23T14:26:45;30.93;;;19.67;;
18879;SDS011;9572;52.378;13.404;2023-02-23T14:32:47;34.23;;;20.00;;
18879;SDS011;9572;52.378;13.404;2023-02-23T14:38:14;37.17;;;21.00;;
18879;SDS011;9572;52.378;13.404;2023-02-23T14:40:48;45.83;;;23.03;;
18879;SDS011;9572;52.378;13.404;2023-02-23T14:46:07;42.67;;;25.10;;
18879;SDS011;9572;52.378;13.404;2023-02-23T14:48:40;47.33;;;26.40;;
18879;SDS011;9572;52.378;13.404;2023-02-23T14:51:12;53.07;;;27.10;;
18879;SDS011;9572;52.378;13.404;2023-02-23T14:53:45;53.33;;;29.43;;
18879;SDS011;9572;52.378;13.404;2023-02-23T14:56:18;55.10;;;29.63;;
18879;SDS011;9572;52.378;13.404;2023-02-23T14:58:50;55.93;;;30.07;;
18879;SDS011;9572;52.378;13.404;2023-02-23T15:01:30;57.93;;;31.53;;
18879;SDS011;9572;52.378;13.404;2023-02-23T15:04:05;58.73;;;32.60;;
18879;SDS011;9572;52.378;13.404;2023-02-23T15:06:36;56.87;;;31.03;;
18879;SDS011;9572;52.378;13.404;2023-02-23T15:09:07;62.80;;;33.70;;
18879;SDS011;9572;52.378;13.404;2023-02-23T15:11:42;68.00;;;31.73;;
18879;SDS011;9572;52.378;13.404;2023-02-23T15:14:14;63.30;;;31.57;;
18879;SDS011;9572;52.378;13.404;2023-02-23T15:16:42;63.90;;;33.00;;